createdAt,value
2023-01-12T00:01:40.767Z,100792.69
2023-01-12T00:04:08.136Z,100738.25
2023-01-12T00:06:35.481Z,100683.75
2023-01-12T00:09:03.918Z,100774.81
2023-01-12T00:11:30.839Z,100732.03
2023-01-12T00:13:58.083Z,100764.09
2023-01-12T00:16:34.751Z,100682.28
2023-01-12T00:19:15.485Z,100769.66
2023-01-12T00:21:50.169Z,100769.59
2023-01-12T00:24:18.583Z,100754.47
2023-01-12T00:26:47.031Z,100726.75
2023-01-12T00:29:14.231Z,100756.09
2023-01-12T00:31:41.036Z,100748.09
2023-01-12T00:34:07.768Z,100735.47
2023-01-12T00:36:34.632Z,100647.34
2023-01-12T00:39:01.447Z,100763.34
2023-01-12T00:41:46.690Z,100664.44
2023-01-12T00:44:31.569Z,100736.81
2023-01-12T00:46:58.195Z,100646.06
2023-01-12T00:49:24.783Z,100706.66
2023-01-12T00:51:51.424Z,100706.81
2023-01-12T00:54:18.101Z,100731.97
2023-01-12T00:56:45.072Z,100717.72
2023-01-12T00:59:11.646Z,100720.44
2023-01-12T01:01:38.493Z,100718.66
2023-01-12T01:04:05.137Z,100618.91
2023-01-12T01:06:31.693Z,100706.19
2023-01-12T01:08:58.612Z,100722.28
2023-01-12T01:11:25.167Z,100725.91
2023-01-12T01:13:53.688Z,100710.69
2023-01-12T01:16:20.268Z,100619.03
2023-01-12T01:18:46.905Z,100682.41
2023-01-12T01:21:14.358Z,100675.28
2023-01-12T01:23:42.373Z,100685.25
2023-01-12T01:26:14.242Z,100684.28
2023-01-12T01:28:41.650Z,100642.44
2023-01-12T01:31:12.016Z,100701.22
2023-01-12T01:33:38.921Z,100657.53
2023-01-12T01:36:05.714Z,100696.81
2023-01-12T01:38:33.074Z,100682.66
2023-01-12T01:41:00.380Z,100661.25
2023-01-12T01:43:28.546Z,100624.72
2023-01-12T01:46:08.123Z,100633.59
2023-01-12T01:48:37.229Z,100643.59
2023-01-12T01:51:08.814Z,100684.47
2023-01-12T01:53:37.958Z,100614.88
2023-01-12T01:56:14.499Z,100674.56
2023-01-12T01:58:47.961Z,100599.75
2023-01-12T02:01:14.616Z,100650.63
2023-01-12T02:03:41.660Z,100649.88
2023-01-12T02:06:08.953Z,100634.75
2023-01-12T02:08:46.629Z,100619.59
2023-01-12T02:11:32.373Z,100602.63
2023-01-12T02:14:25.051Z,100642.72
2023-01-12T02:17:15.792Z,100628.59
2023-01-12T02:20:19.566Z,100640.19
2023-01-12T02:23:17.635Z,100558.13
2023-01-12T02:26:00.794Z,100639.22
2023-01-12T02:28:56.041Z,100639.22
2023-01-12T02:32:06.548Z,100615.94
2023-01-12T02:35:17.530Z,100547.38
2023-01-12T02:38:01.446Z,100603.72
2023-01-12T02:40:49.602Z,100621.59
2023-01-12T02:43:28.494Z,100613.56
2023-01-12T02:46:11.611Z,100604.72
2023-01-12T02:48:40.791Z,100582.59
2023-01-12T02:51:15.111Z,100567.34
2023-01-12T02:53:51.457Z,100495.38
2023-01-12T02:56:27.661Z,100596.84
2023-01-12T02:58:59.132Z,100564.81
2023-01-12T03:01:28.540Z,100521.16
2023-01-12T03:04:01.057Z,100536.41
2023-01-12T03:06:38.527Z,100574.88
2023-01-12T03:09:05.104Z,100539.41
2023-01-12T03:11:31.728Z,100550.06
2023-01-12T03:14:01.693Z,100530.47
2023-01-12T03:16:35.323Z,100541.97
2023-01-12T03:19:09.377Z,100566.06
2023-01-12T03:21:40.543Z,100465.53
2023-01-12T03:24:12.903Z,100542.06
2023-01-12T03:26:46.992Z,100519.00
2023-01-12T03:29:27.700Z,100478.94
2023-01-12T03:31:55.869Z,100527.94
2023-01-12T03:34:23.254Z,100441.72
2023-01-12T03:36:57.849Z,100539.69
2023-01-12T03:40:05.264Z,100513.13
2023-01-12T03:42:47.921Z,100473.09
2023-01-12T03:45:17.511Z,100517.56
2023-01-12T03:47:44.564Z,100410.91
2023-01-12T03:50:22.155Z,100496.38
2023-01-12T03:52:50.549Z,100484.78
2023-01-12T03:55:22.795Z,100472.41
2023-01-12T03:57:51.008Z,100460.81
2023-01-12T04:00:20.354Z,100478.59
2023-01-12T04:02:46.845Z,100446.75
2023-01-12T04:05:15.158Z,100386.19
2023-01-12T04:07:41.684Z,100428.16
2023-01-12T04:10:08.923Z,100415.03
2023-01-12T04:12:35.480Z,100413.09
2023-01-12T04:15:02.067Z,100413.19
2023-01-12T04:17:29.206Z,100409.53
2023-01-12T04:19:55.892Z,100433.59
2023-01-12T04:22:40.839Z,100393.72
2023-01-12T04:25:09.668Z,100324.44
2023-01-12T04:27:36.672Z,100320.91
2023-01-12T04:30:04.257Z,100386.84
2023-01-12T04:32:30.740Z,100368.16
2023-01-12T04:34:57.325Z,100274.97
2023-01-12T04:37:23.847Z,100358.59
2023-01-12T04:39:50.378Z,100347.97
2023-01-12T04:42:35.656Z,100343.50
2023-01-12T04:45:02.171Z,100316.88
2023-01-12T04:47:28.756Z,100334.69
2023-01-12T04:49:55.434Z,100229.94
2023-01-12T04:52:21.990Z,100229.09
2023-01-12T04:54:48.523Z,100287.78
2023-01-12T04:57:15.139Z,100278.31
2023-01-12T04:59:41.688Z,100263.94
2023-01-12T05:02:08.325Z,100287.84
2023-01-12T05:04:35.002Z,100294.91
2023-01-12T05:07:01.509Z,100304.72
2023-01-12T05:09:46.824Z,100291.50
2023-01-12T05:12:13.330Z,100272.84
2023-01-12T05:14:39.866Z,100238.47
2023-01-12T05:17:06.432Z,100170.88
2023-01-12T05:19:32.993Z,100289.72
2023-01-12T05:21:59.622Z,100270.19
2023-01-12T05:24:26.102Z,100233.88
2023-01-12T05:26:52.641Z,100246.34
2023-01-12T05:29:19.189Z,100259.59
2023-01-12T05:31:45.809Z,100236.59
2023-01-12T05:34:13.825Z,100253.38
2023-01-12T05:36:40.417Z,100243.75
2023-01-12T05:39:06.921Z,100249.00
2023-01-12T05:41:33.444Z,100243.72
2023-01-12T05:44:00.008Z,100250.84
2023-01-12T05:46:30.094Z,100153.31
2023-01-12T05:48:57.946Z,100231.41
2023-01-12T05:51:27.068Z,100181.69
2023-01-12T05:53:55.181Z,100217.19
2023-01-12T05:56:27.527Z,100261.56
2023-01-12T05:58:58.342Z,100230.59
2023-01-12T06:01:25.889Z,100243.06
2023-01-12T06:03:54.589Z,100191.63
2023-01-12T06:06:23.003Z,100213.66
2023-01-12T06:08:52.165Z,100143.72
2023-01-12T06:11:37.603Z,100198.88
2023-01-12T06:14:04.953Z,100194.41
2023-01-12T06:16:31.752Z,100216.56
2023-01-12T06:18:58.370Z,100199.72
2023-01-12T06:21:25.632Z,100176.69
2023-01-12T06:23:52.210Z,100232.47
2023-01-12T06:26:18.898Z,100208.56
2023-01-12T06:28:45.468Z,100214.69
2023-01-12T06:31:13.623Z,100245.75
2023-01-12T06:33:41.359Z,100238.66
2023-01-12T06:36:10.133Z,100227.13
2023-01-12T06:38:37.318Z,100221.00
2023-01-12T06:41:05.964Z,100160.63
2023-01-12T06:43:32.533Z,100209.47
2023-01-12T06:45:59.669Z,100231.72
2023-01-12T06:48:26.521Z,100132.41
2023-01-12T06:51:05.952Z,100212.19
2023-01-12T06:53:32.401Z,100198.91
2023-01-12T06:55:59.989Z,100136.88
2023-01-12T06:58:26.487Z,100205.13
2023-01-12T07:00:53.061Z,100223.00
2023-01-12T07:03:20.426Z,100222.91
2023-01-12T07:05:47.015Z,100212.31
2023-01-12T07:08:18.962Z,100186.63
2023-01-12T07:10:46.552Z,100213.25
2023-01-12T07:13:13.207Z,100155.56
2023-01-12T07:15:39.778Z,100215.00
2023-01-12T07:18:06.340Z,100214.16
2023-01-12T07:20:33.263Z,100223.94
2023-01-12T07:22:59.932Z,100076.53
2023-01-12T07:25:26.752Z,100234.53
2023-01-12T07:27:57.909Z,100167.97
2023-01-12T07:30:25.883Z,100237.25
2023-01-12T07:32:52.770Z,100241.72
2023-01-12T07:35:19.432Z,100219.44
2023-01-12T07:37:55.981Z,100253.22
2023-01-12T07:40:22.610Z,100249.66
2023-01-12T07:42:49.121Z,100254.94
2023-01-12T07:45:15.703Z,100247.03
2023-01-12T07:47:42.222Z,100255.91
2023-01-12T07:50:10.718Z,100252.34
2023-01-12T07:52:38.137Z,100261.22
2023-01-12T07:55:04.952Z,100221.28
2023-01-12T07:57:31.471Z,100269.16
2023-01-12T07:59:57.947Z,100216.03
2023-01-12T08:02:24.499Z,100219.50
2023-01-12T08:04:51.051Z,100258.50
2023-01-12T08:07:17.628Z,100267.34
2023-01-12T08:09:44.250Z,100195.47
2023-01-12T08:12:10.737Z,100293.13
2023-01-12T08:14:38.998Z,100196.38
2023-01-12T08:17:15.754Z,100268.28
2023-01-12T08:19:49.042Z,100295.81
2023-01-12T08:22:20.998Z,100296.72
2023-01-12T08:24:59.782Z,100285.22
2023-01-12T08:27:30.475Z,100301.13
2023-01-12T08:29:59.977Z,100222.16
2023-01-12T08:32:30.363Z,100285.28
2023-01-12T08:35:01.728Z,100251.41
2023-01-12T08:37:29.519Z,100234.56
2023-01-12T08:39:56.071Z,100281.56
2023-01-12T08:42:26.398Z,100248.78
2023-01-12T08:44:54.758Z,100223.00
2023-01-12T08:47:28.206Z,100325.97
2023-01-12T08:49:55.304Z,100311.72
2023-01-12T08:52:22.005Z,100306.47
2023-01-12T08:54:49.437Z,100292.28
2023-01-12T08:57:19.838Z,100311.84
2023-01-12T08:59:46.345Z,100307.47
2023-01-12T09:02:13.872Z,100203.59
2023-01-12T09:04:40.825Z,100295.00
2023-01-12T09:07:09.494Z,100300.41
2023-01-12T09:09:36.583Z,100240.00
2023-01-12T09:12:03.807Z,100310.16
2023-01-12T09:14:30.333Z,100304.81
2023-01-12T09:16:57.009Z,100271.09
2023-01-12T09:19:23.651Z,100280.88
2023-01-12T09:21:50.232Z,100306.63
2023-01-12T09:24:16.711Z,100310.28
2023-01-12T09:26:45.506Z,100234.81
2023-01-12T09:29:13.285Z,100330.69
2023-01-12T09:31:42.981Z,100320.94
2023-01-12T09:34:09.614Z,100330.66
2023-01-12T09:36:37.607Z,100264.06
2023-01-12T09:39:09.897Z,100324.47
2023-01-12T09:42:03.034Z,100326.28
2023-01-12T09:44:59.140Z,100344.03
2023-01-12T09:47:44.683Z,100340.53
2023-01-12T09:50:20.079Z,100349.38
2023-01-12T09:52:55.819Z,100277.47
2023-01-12T09:55:25.955Z,100352.94
2023-01-12T09:58:01.083Z,100321.88
2023-01-12T10:00:28.184Z,100328.91
2023-01-12T10:03:11.900Z,100290.78
2023-01-12T10:05:53.130Z,100360.06
2023-01-12T10:08:40.080Z,100333.44
2023-01-12T10:11:06.747Z,100360.97
2023-01-12T10:14:01.931Z,100345.91
2023-01-12T10:16:51.711Z,100290.88
2023-01-12T10:19:54.987Z,100358.38
2023-01-12T10:22:39.945Z,100343.38
2023-01-12T10:25:29.341Z,100362.84
2023-01-12T10:27:59.099Z,100351.38
2023-01-12T10:30:34.750Z,100351.34
2023-01-12T10:33:15.940Z,100373.56
2023-01-12T10:36:10.144Z,100366.47
2023-01-12T10:38:56.598Z,100363.81
2023-01-12T10:41:37.831Z,100311.31
2023-01-12T10:44:14.781Z,100370.84
2023-01-12T10:46:41.862Z,100370.84
2023-01-12T10:49:26.921Z,100369.06
2023-01-12T10:51:59.841Z,100363.75
2023-01-12T10:54:28.046Z,100292.66
2023-01-12T10:57:19.850Z,100304.25
2023-01-12T10:59:55.649Z,100288.25
2023-01-12T11:02:24.112Z,100374.41
2023-01-12T11:04:52.387Z,100360.19
2023-01-12T11:07:28.994Z,100379.75
2023-01-12T11:10:16.456Z,100308.72
2023-01-12T11:12:58.864Z,100375.28
2023-01-12T11:15:26.469Z,100304.28
2023-01-12T11:17:59.068Z,100375.28
2023-01-12T11:20:32.933Z,100370.84
2023-01-12T11:23:03.050Z,100298.00
2023-01-12T11:25:36.134Z,100346.81
2023-01-12T11:28:14.350Z,100370.81
2023-01-12T11:30:47.959Z,100305.09
2023-01-12T11:33:23.030Z,100356.59
2023-01-12T11:36:05.212Z,100330.00
2023-01-12T11:38:38.972Z,100353.94
2023-01-12T11:41:10.414Z,100306.00
2023-01-12T11:43:49.121Z,100360.19
2023-01-12T11:46:29.035Z,100369.91
2023-01-12T11:49:39.340Z,100361.97
2023-01-12T11:52:10.084Z,100358.47
2023-01-12T11:54:38.253Z,100290.06
2023-01-12T11:57:33.128Z,100362.00
2023-01-12T12:00:18.335Z,100352.28
2023-01-12T12:03:03.021Z,100359.38
2023-01-12T12:05:58.493Z,100354.97
2023-01-12T12:08:34.050Z,100366.47
2023-01-12T12:11:09.429Z,100359.41
2023-01-12T12:13:55.052Z,100344.31
2023-01-12T12:16:37.492Z,100324.78
2023-01-12T12:19:22.289Z,100276.84
2023-01-12T12:22:00.917Z,100358.53
2023-01-12T12:25:01.589Z,100355.00
2023-01-12T12:27:52.568Z,100347.91
2023-01-12T12:30:38.464Z,100348.78
2023-01-12T12:33:30.091Z,100340.84
2023-01-12T12:36:16.685Z,100317.81
2023-01-12T12:38:58.334Z,100336.47
2023-01-12T12:41:55.872Z,100328.47
2023-01-12T12:44:51.599Z,100313.34
2023-01-12T12:47:42.158Z,100322.25
2023-01-12T12:50:23.303Z,100310.72
2023-01-12T12:53:03.335Z,100248.59
2023-01-12T12:55:31.022Z,100319.56
2023-01-12T12:58:06.033Z,100317.78
2023-01-12T13:00:42.533Z,100191.84
2023-01-12T13:03:10.102Z,100237.91
2023-01-12T13:05:43.084Z,100257.50
2023-01-12T13:08:25.733Z,100308.06
2023-01-12T13:10:58.657Z,100231.78
2023-01-12T13:13:56.184Z,100298.31
2023-01-12T13:16:22.679Z,100322.25
2023-01-12T13:18:49.524Z,100312.50
2023-01-12T13:21:57.703Z,100308.94
2023-01-12T13:24:40.454Z,100216.66
2023-01-12T13:27:44.212Z,100306.28
2023-01-12T13:30:29.025Z,100305.41
2023-01-12T13:33:17.340Z,100296.56
2023-01-12T13:35:46.895Z,100308.09
2023-01-12T13:38:36.290Z,100303.66
2023-01-12T13:41:15.051Z,100225.56
2023-01-12T13:43:49.722Z,100269.88
2023-01-12T13:46:20.212Z,100233.53
2023-01-12T13:48:49.812Z,100296.53
2023-01-12T13:51:25.410Z,100301.88
2023-01-12T13:54:04.417Z,100227.34
2023-01-12T13:56:31.757Z,100283.22
2023-01-12T13:59:02.856Z,100282.34
2023-01-12T14:01:39.476Z,100295.66
2023-01-12T14:04:31.661Z,100294.75
2023-01-12T14:07:42.227Z,100300.94
2023-01-12T14:10:23.879Z,100298.31
2023-01-12T14:13:03.858Z,100221.13
2023-01-12T14:16:00.280Z,100293.88
2023-01-12T14:18:29.703Z,100210.50
2023-01-12T14:20:58.311Z,100277.03
2023-01-12T14:23:31.280Z,100262.84
2023-01-12T14:26:13.287Z,100289.50
2023-01-12T14:28:51.501Z,100261.09
2023-01-12T14:31:30.508Z,100285.03
2023-01-12T14:34:00.879Z,100271.72
2023-01-12T14:36:35.909Z,100271.72
2023-01-12T14:39:07.848Z,100277.97
2023-01-12T14:41:53.040Z,100277.94
2023-01-12T14:44:41.927Z,100178.63
2023-01-12T14:47:09.590Z,100233.59
2023-01-12T14:49:38.255Z,100206.09
2023-01-12T14:52:16.802Z,100275.31
2023-01-12T14:54:43.524Z,100288.59
2023-01-12T14:57:33.978Z,100268.19
2023-01-12T15:00:02.702Z,100262.91
2023-01-12T15:02:35.102Z,100273.53
2023-01-12T15:05:10.649Z,100275.28
2023-01-12T15:07:52.322Z,100210.50
2023-01-12T15:10:18.798Z,100278.84
2023-01-12T15:12:52.585Z,100271.75
2023-01-12T15:15:28.010Z,100270.88
2023-01-12T15:18:14.296Z,100198.13
2023-01-12T15:21:02.354Z,100238.06
2023-01-12T15:23:53.468Z,100267.34
2023-01-12T15:26:21.859Z,100194.59
2023-01-12T15:28:49.161Z,100248.75
2023-01-12T15:31:23.016Z,100252.25
2023-01-12T15:33:49.816Z,100257.59
2023-01-12T15:36:16.417Z,100253.16
2023-01-12T15:38:42.918Z,100197.28
2023-01-12T15:41:49.008Z,100257.59
2023-01-12T15:44:18.011Z,100235.44
2023-01-12T15:46:44.710Z,100245.19
2023-01-12T15:49:13.376Z,100253.16
2023-01-12T15:51:41.502Z,100245.22
2023-01-12T15:54:11.844Z,100234.56
2023-01-12T15:56:38.368Z,100249.66
2023-01-12T15:59:05.583Z,100168.91
2023-01-12T16:01:41.392Z,100237.22
2023-01-12T16:04:42.112Z,100210.63
2023-01-12T16:07:09.030Z,100232.78
2023-01-12T16:09:35.714Z,100167.16
2023-01-12T16:12:02.194Z,100232.81
2023-01-12T16:14:28.694Z,100226.59
2023-01-12T16:16:55.206Z,100215.94
2023-01-12T16:19:22.288Z,100236.34
2023-01-12T16:21:48.933Z,100156.56
2023-01-12T16:24:15.597Z,100193.78
2023-01-12T16:26:42.211Z,100177.84
2023-01-12T16:29:09.013Z,100233.69
2023-01-12T16:31:38.099Z,100231.91
2023-01-12T16:34:05.684Z,100237.25
2023-01-12T16:36:32.183Z,100238.13
2023-01-12T16:38:58.779Z,100239.91
2023-01-12T16:41:25.329Z,100227.50
2023-01-12T16:43:52.067Z,100225.72
2023-01-12T16:46:18.802Z,100239.91
2023-01-12T16:48:45.552Z,100222.19
2023-01-12T16:51:14.236Z,100240.78
2023-01-12T16:53:41.659Z,100230.19
2023-01-12T16:56:13.709Z,100239.00
2023-01-12T16:58:42.504Z,100150.34
2023-01-12T17:01:13.575Z,100234.59
2023-01-12T17:03:41.650Z,100236.38
2023-01-12T17:06:14.695Z,100231.03
2023-01-12T17:08:41.772Z,100238.13
2023-01-12T17:11:13.640Z,100231.91
2023-01-12T17:13:40.634Z,100165.44
2023-01-12T17:16:09.437Z,100223.94
2023-01-12T17:18:37.787Z,100205.31
2023-01-12T17:21:07.787Z,100227.44
2023-01-12T17:23:34.687Z,100226.63
2023-01-12T17:26:03.362Z,100231.91
2023-01-12T17:28:30.358Z,100156.56
2023-01-12T17:30:58.101Z,100222.16
2023-01-12T17:33:24.931Z,100201.75
2023-01-12T17:35:51.731Z,100218.63
2023-01-12T17:38:18.400Z,100186.72
2023-01-12T17:40:44.949Z,100222.16
2023-01-12T17:43:14.588Z,100206.25
2023-01-12T17:45:42.754Z,100172.53
2023-01-12T17:48:13.004Z,100192.94
2023-01-12T17:50:40.481Z,100226.63
2023-01-12T17:53:09.293Z,100145.06
2023-01-12T17:55:47.482Z,100214.19
2023-01-12T17:58:17.401Z,100144.19
2023-01-12T18:00:44.184Z,100209.78
2023-01-12T18:03:10.693Z,100184.06
2023-01-12T18:05:37.250Z,100142.34
2023-01-12T18:08:03.929Z,100199.16
2023-01-12T18:10:30.463Z,100208.03
2023-01-12T18:12:57.059Z,100189.41
2023-01-12T18:15:23.957Z,100193.84
2023-01-12T18:17:50.552Z,100141.56
2023-01-12T18:20:17.082Z,100196.50
2023-01-12T18:22:44.565Z,100193.81
2023-01-12T18:25:11.180Z,100195.63
2023-01-12T18:27:37.815Z,100216.00
2023-01-12T18:30:04.959Z,100170.78
2023-01-12T18:32:31.456Z,100217.72
2023-01-12T18:34:58.455Z,100206.19
2023-01-12T18:37:25.040Z,100201.75
2023-01-12T18:39:51.630Z,100230.13
2023-01-12T18:42:36.956Z,100239.00
2023-01-12T18:45:04.634Z,100221.28
2023-01-12T18:47:49.970Z,100230.16
2023-01-12T18:50:35.527Z,100223.94
2023-01-12T18:53:20.794Z,100226.59
2023-01-12T18:55:48.216Z,100228.38
2023-01-12T18:58:14.867Z,100236.38
2023-01-12T19:00:41.603Z,100160.13
2023-01-12T19:03:08.240Z,100217.75
2023-01-12T19:05:41.941Z,100192.03
2023-01-12T19:08:27.221Z,100215.09
2023-01-12T19:10:54.257Z,100206.25
2023-01-12T19:13:40.176Z,100186.75
2023-01-12T19:16:25.913Z,100192.94
2023-01-12T19:18:53.197Z,100203.56
2023-01-12T19:21:38.376Z,100216.00
2023-01-12T19:24:23.491Z,100215.09
2023-01-12T19:27:08.791Z,100203.59
2023-01-12T19:29:35.439Z,100145.94
2023-01-12T19:32:02.382Z,100201.81
2023-01-12T19:34:28.927Z,100213.34
2023-01-12T19:36:55.451Z,100211.56
2023-01-12T19:39:34.318Z,100227.53
2023-01-12T19:42:20.489Z,100137.13
2023-01-12T19:44:47.147Z,100202.72
2023-01-12T19:47:13.723Z,100197.41
2023-01-12T19:49:40.267Z,100221.31
2023-01-12T19:52:06.761Z,100193.84
2023-01-12T19:54:33.412Z,100192.06
2023-01-12T19:56:59.993Z,100193.84
2023-01-12T19:59:27.668Z,100134.44
2023-01-12T20:01:54.959Z,100205.38
2023-01-12T20:04:21.535Z,100198.31
2023-01-12T20:06:48.029Z,100138.00
2023-01-12T20:09:14.582Z,100153.06
2023-01-12T20:11:41.146Z,100163.72
2023-01-12T20:14:07.664Z,100217.78
2023-01-12T20:16:34.171Z,100135.31
2023-01-12T20:19:00.891Z,100213.34
2023-01-12T20:21:27.578Z,100220.41
2023-01-12T20:23:54.325Z,100148.63
2023-01-12T20:26:20.957Z,100193.84
2023-01-12T20:28:47.473Z,100124.75
2023-01-12T20:31:16.114Z,100195.66
2023-01-12T20:33:42.796Z,100130.91
2023-01-12T20:36:14.402Z,100172.59
2023-01-12T20:38:41.902Z,100168.13
2023-01-12T20:41:10.017Z,100152.22
2023-01-12T20:43:36.686Z,100162.88
2023-01-12T20:46:07.906Z,100162.00
2023-01-12T20:48:34.557Z,100162.00
2023-01-12T20:51:03.025Z,100096.44
2023-01-12T20:53:31.552Z,100103.53
2023-01-12T20:55:58.376Z,100170.00
2023-01-12T20:58:26.078Z,100107.09
2023-01-12T21:00:53.320Z,100146.09
2023-01-12T21:03:20.125Z,100137.22
2023-01-12T21:05:48.711Z,100089.41
2023-01-12T21:08:16.728Z,100096.50
2023-01-12T21:10:52.205Z,100128.41
2023-01-12T21:13:19.965Z,100062.84
2023-01-12T21:15:46.962Z,100087.66
2023-01-12T21:18:13.590Z,100149.66
2023-01-12T21:20:42.078Z,100135.50
2023-01-12T21:23:09.075Z,100151.44
2023-01-12T21:25:41.293Z,100133.72
2023-01-12T21:28:07.852Z,100131.94
2023-01-12T21:30:35.065Z,100068.16
2023-01-12T21:33:01.606Z,100167.38
2023-01-12T21:35:28.157Z,100142.53
2023-01-12T21:37:55.748Z,100071.66
2023-01-12T21:40:22.503Z,100120.38
2023-01-12T21:43:08.389Z,100091.97
2023-01-12T21:45:43.597Z,100169.09
2023-01-12T21:48:11.459Z,100048.56
2023-01-12T21:50:38.415Z,100161.94
2023-01-12T21:53:06.417Z,100152.16
2023-01-12T21:55:33.913Z,100161.91
2023-01-12T21:58:01.924Z,100137.09
2023-01-12T22:00:28.666Z,100133.56
2023-01-12T22:02:56.014Z,100078.69
2023-01-12T22:05:23.567Z,100163.75
2023-01-12T22:07:51.275Z,100138.94
2023-01-12T22:10:21.882Z,100169.06
2023-01-12T22:12:51.129Z,100166.41
2023-01-12T22:15:18.175Z,100153.09
2023-01-12T22:17:46.205Z,100156.69
2023-01-12T22:20:14.160Z,100135.44
2023-01-12T22:22:41.191Z,100065.41
2023-01-12T22:25:09.857Z,100092.84
2023-01-12T22:27:37.117Z,100145.09
2023-01-12T22:30:05.891Z,100073.31
2023-01-12T22:32:33.309Z,100159.25
2023-01-12T22:34:59.921Z,100150.34
2023-01-12T22:37:30.940Z,100156.53
2023-01-12T22:39:57.588Z,100165.41
2023-01-12T22:42:47.061Z,100166.28
2023-01-12T22:45:14.144Z,100165.41
2023-01-12T22:47:48.064Z,100159.19
2023-01-12T22:50:16.327Z,100152.06
2023-01-12T22:52:42.884Z,100176.81
2023-01-12T22:55:09.584Z,100076.59
2023-01-12T22:57:37.170Z,100083.63
2023-01-12T23:00:04.962Z,100164.31
2023-01-12T23:02:50.052Z,100137.78
2023-01-12T23:05:16.728Z,100168.78
2023-01-12T23:07:43.252Z,100133.22
2023-01-12T23:10:10.938Z,100137.59
2023-01-12T23:12:37.511Z,100166.00
2023-01-12T23:15:04.442Z,100188.16
2023-01-12T23:17:32.112Z,100188.16
2023-01-12T23:19:58.973Z,100184.75
2023-01-12T23:22:25.490Z,100189.22
2023-01-12T23:24:51.974Z,100164.31
2023-01-12T23:27:18.511Z,100090.66
2023-01-12T23:29:46.899Z,100159.78
2023-01-12T23:32:13.427Z,100153.50
2023-01-12T23:34:39.988Z,100093.06
2023-01-12T23:37:06.489Z,100154.31
2023-01-12T23:39:33.110Z,100093.94
2023-01-12T23:41:59.685Z,100185.22
2023-01-12T23:44:26.194Z,100171.88
2023-01-12T23:46:54.703Z,100175.50
2023-01-12T23:49:21.182Z,100172.00
2023-01-12T23:51:47.766Z,100110.78
2023-01-12T23:54:17.372Z,100141.81
2023-01-12T23:56:43.907Z,100181.84
2023-01-12T23:59:10.416Z,100109.97
